createdAt,value
2023-03-10T00:00:40.715Z,97.43
2023-03-10T00:03:09.145Z,97.59
2023-03-10T00:05:39.347Z,96.39
2023-03-10T00:08:08.039Z,94.79
2023-03-10T00:10:36.024Z,94.02
2023-03-10T00:13:03.972Z,92.41
2023-03-10T00:15:32.691Z,91.61
2023-03-10T00:18:00.682Z,90.63
2023-03-10T00:20:28.709Z,91.39
2023-03-10T00:22:57.958Z,90.97
2023-03-10T00:25:25.848Z,90.53
2023-03-10T00:27:53.903Z,89.89
2023-03-10T00:30:23.719Z,89.57
2023-03-10T00:32:51.860Z,88.99
2023-03-10T00:35:19.891Z,89.31
2023-03-10T00:37:47.853Z,89.82
2023-03-10T00:40:18.929Z,91.36
2023-03-10T00:42:46.855Z,91.59
2023-03-10T00:45:14.822Z,91.17
2023-03-10T00:47:43.017Z,91.14
2023-03-10T00:50:12.482Z,91.59
2023-03-10T00:52:40.507Z,91.51
2023-03-10T00:55:09.276Z,91.19
2023-03-10T00:57:39.310Z,91.11
2023-03-10T01:00:10.627Z,91.07
2023-03-10T01:02:38.560Z,92.16
2023-03-10T01:05:06.737Z,90.98
2023-03-10T01:07:34.657Z,91.20
2023-03-10T01:10:02.585Z,90.32
2023-03-10T01:12:30.575Z,90.71
2023-03-10T01:14:59.833Z,91.94
2023-03-10T01:17:27.759Z,92.64
2023-03-10T01:19:55.659Z,91.04
2023-03-10T01:22:23.604Z,90.98
2023-03-10T01:24:52.328Z,89.45
2023-03-10T01:27:20.326Z,89.34
2023-03-10T01:29:48.305Z,88.83
2023-03-10T01:32:18.200Z,89.55
2023-03-10T01:34:46.139Z,89.98
2023-03-10T01:37:14.133Z,89.70
2023-03-10T01:39:43.200Z,89.53
2023-03-10T01:42:11.170Z,90.16
2023-03-10T01:44:39.410Z,88.84
2023-03-10T01:47:07.500Z,88.46
2023-03-10T01:49:50.536Z,88.73
2023-03-10T01:52:23.164Z,88.78
2023-03-10T01:54:56.062Z,87.18
2023-03-10T01:57:28.192Z,87.33
2023-03-10T01:59:58.186Z,87.44
2023-03-10T02:02:28.379Z,87.39
2023-03-10T02:04:59.388Z,87.36
2023-03-10T02:07:33.683Z,86.66
2023-03-10T02:10:03.331Z,86.48
2023-03-10T02:12:31.359Z,87.69
2023-03-10T02:15:00.685Z,87.51
2023-03-10T02:17:29.433Z,87.34
2023-03-10T02:20:16.236Z,86.80
2023-03-10T02:22:44.210Z,86.43
2023-03-10T02:25:26.406Z,86.57
2023-03-10T02:27:56.349Z,85.40
2023-03-10T02:30:28.743Z,85.46
2023-03-10T02:33:00.106Z,85.66
2023-03-10T02:35:29.043Z,86.06
2023-03-10T02:38:02.343Z,85.95
2023-03-10T02:40:34.831Z,86.10
2023-03-10T02:43:17.825Z,86.25
2023-03-10T02:45:48.534Z,85.21
2023-03-10T02:48:28.359Z,85.13
2023-03-10T02:50:58.912Z,85.64
2023-03-10T02:53:28.688Z,84.45
2023-03-10T02:55:57.637Z,84.59
2023-03-10T02:58:29.260Z,83.69
2023-03-10T03:00:57.743Z,83.82
2023-03-10T03:03:26.563Z,83.70
2023-03-10T03:05:55.160Z,83.37
2023-03-10T03:08:23.630Z,81.82
2023-03-10T03:10:52.874Z,82.10
2023-03-10T03:13:21.083Z,82.66
2023-03-10T03:15:51.264Z,81.96
2023-03-10T03:18:19.322Z,82.59
2023-03-10T03:20:47.228Z,81.94
2023-03-10T03:23:15.292Z,82.22
2023-03-10T03:25:44.081Z,82.19
2023-03-10T03:28:15.275Z,81.67
2023-03-10T03:30:46.778Z,81.27
2023-03-10T03:33:16.893Z,81.30
2023-03-10T03:35:46.326Z,81.91
2023-03-10T03:38:16.828Z,81.95
2023-03-10T03:40:45.584Z,81.36
2023-03-10T03:43:15.931Z,80.91
2023-03-10T03:45:46.242Z,81.41
2023-03-10T03:48:16.222Z,81.02
2023-03-10T03:50:44.165Z,80.90
2023-03-10T03:53:22.196Z,81.06
2023-03-10T03:55:51.250Z,81.62
2023-03-10T03:58:21.776Z,80.94
2023-03-10T04:00:52.062Z,81.71
2023-03-10T04:03:22.074Z,81.11
2023-03-10T04:05:50.486Z,81.09
2023-03-10T04:08:21.072Z,81.49
2023-03-10T04:10:54.507Z,82.83
2023-03-10T04:13:25.663Z,84.19
2023-03-10T04:15:56.655Z,85.06
2023-03-10T04:18:27.482Z,86.92
2023-03-10T04:20:55.926Z,87.02
2023-03-10T04:23:23.878Z,88.44
2023-03-10T04:25:52.193Z,90.04
2023-03-10T04:28:20.248Z,90.46
2023-03-10T04:30:50.271Z,91.89
2023-03-10T04:33:20.980Z,91.08
2023-03-10T04:35:53.519Z,90.97
2023-03-10T04:38:24.068Z,90.81
2023-03-10T04:40:56.387Z,91.03
2023-03-10T04:43:28.728Z,91.31
2023-03-10T04:45:57.501Z,91.74
2023-03-10T04:48:25.754Z,91.30
2023-03-10T04:50:59.096Z,93.20
2023-03-10T04:53:29.954Z,92.41
2023-03-10T04:55:58.363Z,92.44
2023-03-10T04:58:26.529Z,92.08
2023-03-10T05:01:03.272Z,92.29
2023-03-10T05:03:36.677Z,93.03
2023-03-10T05:06:12.053Z,93.34
2023-03-10T05:08:40.372Z,94.42
2023-03-10T05:11:09.471Z,94.23
2023-03-10T05:13:37.658Z,94.91
2023-03-10T05:16:13.891Z,94.31
2023-03-10T05:18:42.025Z,94.21
2023-03-10T05:21:12.601Z,94.67
2023-03-10T05:23:41.192Z,95.39
2023-03-10T05:26:12.090Z,95.26
2023-03-10T05:28:40.811Z,95.97
2023-03-10T05:31:12.280Z,95.74
2023-03-10T05:33:42.961Z,95.53
2023-03-10T05:36:14.674Z,96.15
2023-03-10T05:38:44.753Z,96.52
2023-03-10T05:41:15.584Z,97.73
2023-03-10T05:43:46.133Z,97.01
2023-03-10T05:46:16.756Z,97.37
2023-03-10T05:48:50.477Z,96.21
2023-03-10T05:51:20.377Z,96.82
2023-03-10T05:53:48.758Z,95.75
2023-03-10T05:56:22.448Z,96.65
2023-03-10T05:58:54.515Z,96.86
2023-03-10T06:01:28.931Z,97.47
2023-03-10T06:03:57.072Z,97.78
2023-03-10T06:06:26.380Z,97.55
2023-03-10T06:08:55.545Z,98.19
2023-03-10T06:11:23.655Z,98.48
2023-03-10T06:13:51.630Z,98.42
2023-03-10T06:16:19.723Z,99.33
2023-03-10T06:18:47.707Z,99.12
2023-03-10T06:21:16.346Z,97.35
2023-03-10T06:23:45.581Z,98.96
2023-03-10T06:26:15.274Z,98.33
2023-03-10T06:28:44.976Z,99.24
2023-03-10T06:31:15.308Z,99.18
2023-03-10T06:33:43.705Z,99.56
2023-03-10T06:36:12.907Z,99.11
2023-03-10T06:38:41.165Z,99.32
2023-03-10T06:41:10.776Z,99.16
2023-03-10T06:43:39.276Z,100.00
2023-03-10T06:46:09.613Z,100.00
2023-03-10T06:48:38.679Z,100.00
2023-03-10T06:51:08.095Z,100.00
2023-03-10T06:53:36.035Z,100.00
2023-03-10T06:56:06.333Z,100.00
2023-03-10T06:58:37.260Z,100.00
2023-03-10T07:01:06.201Z,99.88
2023-03-10T07:03:34.284Z,98.74
2023-03-10T07:06:02.255Z,99.43
2023-03-10T07:08:30.957Z,99.40
2023-03-10T07:10:58.888Z,99.92
2023-03-10T07:13:26.846Z,97.96
2023-03-10T07:15:56.119Z,97.66
2023-03-10T07:18:27.791Z,98.08
2023-03-10T07:20:55.756Z,97.79
2023-03-10T07:23:24.261Z,98.16
2023-03-10T07:25:53.597Z,97.14
2023-03-10T07:28:21.566Z,96.39
2023-03-10T07:30:49.592Z,95.08
2023-03-10T07:33:19.325Z,93.91
2023-03-10T07:35:47.415Z,93.57
2023-03-10T07:38:15.369Z,91.92
2023-03-10T07:40:43.307Z,91.96
2023-03-10T07:43:11.235Z,91.27
2023-03-10T07:45:39.935Z,90.86
2023-03-10T07:48:08.538Z,90.33
2023-03-10T07:50:37.870Z,90.47
2023-03-10T07:53:05.846Z,89.41
2023-03-10T07:55:33.897Z,88.67
2023-03-10T07:58:01.814Z,88.53
2023-03-10T08:00:29.736Z,87.45
2023-03-10T08:02:57.653Z,86.58
2023-03-10T08:05:25.608Z,86.08
2023-03-10T08:07:54.976Z,86.93
2023-03-10T08:10:22.900Z,89.12
2023-03-10T08:12:50.871Z,87.25
2023-03-10T08:15:18.974Z,86.54
2023-03-10T08:17:46.855Z,86.69
2023-03-10T08:20:15.161Z,87.86
2023-03-10T08:22:43.113Z,86.25
2023-03-10T08:25:12.979Z,85.00
2023-03-10T08:27:41.591Z,85.23
2023-03-10T08:30:10.732Z,85.00
2023-03-10T08:32:38.698Z,84.82
2023-03-10T08:35:07.790Z,85.14
2023-03-10T08:37:35.791Z,86.32
2023-03-10T08:40:08.145Z,86.97
2023-03-10T08:42:37.494Z,88.27
2023-03-10T08:45:08.483Z,88.35
2023-03-10T08:47:37.122Z,88.30
2023-03-10T08:50:07.245Z,88.50
2023-03-10T08:52:35.389Z,87.93
2023-03-10T08:55:05.211Z,87.73
2023-03-10T08:57:33.671Z,88.88
2023-03-10T09:00:04.249Z,87.86
2023-03-10T09:02:32.232Z,87.73
2023-03-10T09:05:00.168Z,87.48
2023-03-10T09:07:28.135Z,86.68
2023-03-10T09:09:56.105Z,86.56
2023-03-10T09:12:24.051Z,85.48
2023-03-10T09:14:52.288Z,85.38
2023-03-10T09:17:21.731Z,84.80
2023-03-10T09:19:49.628Z,85.80
2023-03-10T09:22:17.821Z,85.37
2023-03-10T09:24:45.742Z,86.39
2023-03-10T09:27:13.669Z,85.76
2023-03-10T09:29:43.282Z,85.83
2023-03-10T09:32:11.981Z,86.15
2023-03-10T09:34:41.571Z,87.81
2023-03-10T09:37:09.579Z,88.04
2023-03-10T09:39:37.474Z,87.74
2023-03-10T09:42:39.025Z,89.11
2023-03-10T09:45:20.021Z,89.51
2023-03-10T09:47:58.769Z,89.12
2023-03-10T09:50:34.708Z,90.23
2023-03-10T09:53:08.749Z,89.83
2023-03-10T09:55:47.515Z,90.54
2023-03-10T09:58:25.614Z,90.35
2023-03-10T10:00:53.515Z,90.06
2023-03-10T10:03:23.412Z,89.91
2023-03-10T10:05:55.378Z,88.61
2023-03-10T10:08:28.877Z,88.76
2023-03-10T10:10:58.562Z,90.25
2023-03-10T10:13:30.594Z,89.71
2023-03-10T10:16:24.633Z,91.40
2023-03-10T10:19:01.843Z,92.19
2023-03-10T10:21:42.531Z,91.16
2023-03-10T10:24:11.103Z,90.86
2023-03-10T10:26:39.037Z,90.34
2023-03-10T10:29:16.516Z,90.62
2023-03-10T10:32:02.305Z,89.90
2023-03-10T10:34:32.056Z,90.77
2023-03-10T10:37:02.203Z,89.05
2023-03-10T10:39:33.691Z,88.35
2023-03-10T10:42:20.052Z,89.01
2023-03-10T10:44:48.539Z,90.04
2023-03-10T10:47:27.229Z,89.26
2023-03-10T10:49:56.626Z,90.41
2023-03-10T10:52:27.071Z,90.51
2023-03-10T10:54:59.340Z,90.24
2023-03-10T10:57:33.395Z,89.98
2023-03-10T11:00:18.591Z,88.25
2023-03-10T11:02:46.945Z,88.49
2023-03-10T11:05:17.972Z,88.08
2023-03-10T11:07:47.698Z,86.79
2023-03-10T11:10:16.889Z,86.41
2023-03-10T11:13:01.487Z,85.84
2023-03-10T11:15:33.899Z,84.56
2023-03-10T11:18:10.066Z,86.08
2023-03-10T11:20:43.890Z,87.28
2023-03-10T11:23:22.534Z,87.85
2023-03-10T11:25:55.880Z,87.43
2023-03-10T11:28:35.661Z,86.12
2023-03-10T11:31:16.255Z,86.71
2023-03-10T11:33:51.508Z,87.70
2023-03-10T11:36:31.842Z,87.98
2023-03-10T11:39:11.936Z,87.54
2023-03-10T11:41:48.678Z,87.86
2023-03-10T11:44:24.492Z,85.62
2023-03-10T11:47:01.932Z,85.11
2023-03-10T11:49:36.753Z,86.50
2023-03-10T11:52:13.393Z,85.16
2023-03-10T11:54:46.429Z,84.08
2023-03-10T11:57:18.016Z,84.42
2023-03-10T11:59:51.541Z,82.97
2023-03-10T12:02:24.740Z,83.36
2023-03-10T12:04:58.896Z,83.48
2023-03-10T12:07:30.817Z,84.83
2023-03-10T12:10:03.545Z,85.27
2023-03-10T12:12:36.193Z,84.59
2023-03-10T12:15:11.350Z,85.26
2023-03-10T12:17:42.290Z,84.84
2023-03-10T12:20:26.226Z,83.38
2023-03-10T12:22:56.125Z,82.77
2023-03-10T12:25:52.524Z,83.86
2023-03-10T12:28:26.335Z,85.12
2023-03-10T12:30:57.817Z,84.31
2023-03-10T12:33:47.419Z,84.54
2023-03-10T12:36:25.246Z,85.35
2023-03-10T12:38:57.639Z,85.17
2023-03-10T12:41:46.791Z,83.59
2023-03-10T12:44:33.137Z,87.29
2023-03-10T12:47:13.536Z,86.46
2023-03-10T12:49:49.322Z,88.68
2023-03-10T12:52:28.266Z,84.38
2023-03-10T12:55:06.436Z,82.99
2023-03-10T12:57:42.051Z,83.77
2023-03-10T13:00:22.273Z,81.27
2023-03-10T13:02:54.047Z,78.92
2023-03-10T13:05:26.117Z,77.41
2023-03-10T13:07:58.182Z,78.11
2023-03-10T13:10:28.406Z,78.36
2023-03-10T13:13:02.145Z,77.02
2023-03-10T13:15:31.866Z,76.10
2023-03-10T13:18:19.813Z,74.19
2023-03-10T13:20:49.083Z,74.92
2023-03-10T13:23:23.873Z,71.75
2023-03-10T13:25:56.008Z,71.63
2023-03-10T13:28:26.442Z,71.11
2023-03-10T13:31:11.702Z,70.61
2023-03-10T13:33:52.395Z,71.33
2023-03-10T13:36:33.076Z,68.00
2023-03-10T13:39:02.784Z,67.12
2023-03-10T13:41:33.628Z,66.90
2023-03-10T13:44:03.858Z,67.10
2023-03-10T13:46:34.221Z,66.98
2023-03-10T13:49:06.612Z,67.02
2023-03-10T13:51:36.545Z,65.96
2023-03-10T13:54:20.946Z,63.77
2023-03-10T13:56:49.928Z,66.15
2023-03-10T13:59:23.093Z,65.12
2023-03-10T14:01:53.692Z,66.45
2023-03-10T14:04:41.132Z,63.73
2023-03-10T14:07:10.733Z,64.43
2023-03-10T14:09:39.227Z,64.09
2023-03-10T14:12:07.650Z,63.48
2023-03-10T14:14:38.631Z,61.44
2023-03-10T14:17:07.922Z,61.60
2023-03-10T14:19:53.696Z,60.77
2023-03-10T14:22:23.825Z,61.98
2023-03-10T14:24:52.067Z,62.14
2023-03-10T14:27:20.422Z,62.95
2023-03-10T14:29:52.413Z,61.69
2023-03-10T14:32:21.143Z,62.85
2023-03-10T14:34:49.945Z,64.08
2023-03-10T14:37:18.072Z,64.75
2023-03-10T14:39:46.114Z,65.16
2023-03-10T14:42:21.204Z,65.58
2023-03-10T14:44:51.046Z,65.56
2023-03-10T14:47:19.401Z,65.69
2023-03-10T14:49:47.491Z,65.86
2023-03-10T14:52:17.705Z,65.81
2023-03-10T14:54:45.997Z,65.90
2023-03-10T14:57:16.012Z,67.00
2023-03-10T14:59:43.943Z,65.89
2023-03-10T15:02:21.672Z,65.00
2023-03-10T15:04:49.659Z,65.33
2023-03-10T15:07:17.692Z,64.96
2023-03-10T15:09:45.893Z,64.92
2023-03-10T15:12:17.861Z,65.00
2023-03-10T15:14:52.144Z,64.65
2023-03-10T15:17:21.469Z,66.04
2023-03-10T15:19:49.555Z,65.98
2023-03-10T15:22:17.532Z,64.49
2023-03-10T15:24:45.516Z,64.80
2023-03-10T15:27:14.477Z,64.92
2023-03-10T15:29:42.422Z,64.59
2023-03-10T15:32:10.477Z,64.62
2023-03-10T15:34:39.750Z,64.27
2023-03-10T15:37:08.720Z,64.65
2023-03-10T15:39:37.357Z,64.81
2023-03-10T15:42:05.633Z,64.42
2023-03-10T15:44:33.584Z,64.23
2023-03-10T15:47:01.685Z,64.02
2023-03-10T15:49:29.652Z,63.69
2023-03-10T15:51:59.017Z,64.61
2023-03-10T15:54:26.956Z,64.79
2023-03-10T15:56:54.844Z,63.65
2023-03-10T15:59:22.896Z,63.64
2023-03-10T16:01:52.501Z,63.41
2023-03-10T16:04:20.588Z,62.78
2023-03-10T16:06:48.562Z,62.90
2023-03-10T16:09:18.655Z,62.96
2023-03-10T16:11:46.704Z,63.44
2023-03-10T16:14:14.691Z,62.40
2023-03-10T16:16:42.693Z,63.02
2023-03-10T16:19:10.843Z,62.70
2023-03-10T16:21:38.733Z,62.57
2023-03-10T16:24:06.901Z,62.14
2023-03-10T16:26:37.251Z,62.89
2023-03-10T16:29:05.322Z,61.96
2023-03-10T16:31:33.619Z,62.18
2023-03-10T16:34:01.551Z,61.87
2023-03-10T16:36:29.929Z,61.56
2023-03-10T16:38:58.052Z,62.29
2023-03-10T16:41:29.341Z,61.01
2023-03-10T16:43:59.115Z,61.16
2023-03-10T16:46:30.283Z,60.92
2023-03-10T16:48:59.398Z,60.63
2023-03-10T16:51:29.594Z,59.59
2023-03-10T16:53:59.575Z,60.18
2023-03-10T16:56:29.105Z,59.35
2023-03-10T16:58:57.788Z,58.24
2023-03-10T17:01:27.489Z,58.51
2023-03-10T17:03:56.213Z,58.01
2023-03-10T17:06:26.114Z,58.76
2023-03-10T17:08:54.903Z,58.50
2023-03-10T17:11:25.329Z,59.21
2023-03-10T17:13:54.266Z,58.96
2023-03-10T17:16:24.399Z,59.62
2023-03-10T17:18:53.907Z,60.38
2023-03-10T17:21:24.838Z,59.96
2023-03-10T17:23:52.803Z,59.19
2023-03-10T17:26:21.565Z,57.77
2023-03-10T17:28:52.300Z,57.17
2023-03-10T17:31:23.651Z,56.29
2023-03-10T17:33:53.057Z,57.22
2023-03-10T17:36:21.452Z,56.45
2023-03-10T17:38:49.500Z,56.80
2023-03-10T17:41:17.535Z,57.91
2023-03-10T17:43:45.461Z,58.65
2023-03-10T17:46:15.732Z,59.64
2023-03-10T17:48:44.196Z,59.68
2023-03-10T17:51:17.537Z,62.41
2023-03-10T17:53:45.855Z,63.91
2023-03-10T17:56:16.180Z,64.94
2023-03-10T17:58:44.442Z,67.69
2023-03-10T18:01:13.961Z,69.28
2023-03-10T18:03:42.749Z,71.66
2023-03-10T18:06:14.883Z,75.98
2023-03-10T18:08:44.345Z,75.35
2023-03-10T18:11:12.410Z,76.56
2023-03-10T18:13:41.337Z,79.79
2023-03-10T18:16:16.877Z,81.06
2023-03-10T18:18:44.982Z,82.28
2023-03-10T18:21:14.266Z,84.62
2023-03-10T18:23:42.743Z,87.29
2023-03-10T18:26:14.167Z,87.39
2023-03-10T18:28:42.217Z,86.63
2023-03-10T18:31:12.234Z,87.45
2023-03-10T18:33:40.175Z,87.88
2023-03-10T18:36:09.296Z,87.31
2023-03-10T18:38:37.279Z,87.36
2023-03-10T18:41:05.257Z,87.90
2023-03-10T18:43:34.611Z,88.20
2023-03-10T18:46:02.990Z,88.16
2023-03-10T18:48:31.357Z,88.34
2023-03-10T18:51:01.075Z,88.54
2023-03-10T18:53:29.447Z,88.24
2023-03-10T18:55:58.941Z,88.00
2023-03-10T18:58:27.009Z,88.72
2023-03-10T19:00:56.925Z,88.46
2023-03-10T19:03:24.906Z,89.15
2023-03-10T19:05:54.576Z,88.49
2023-03-10T19:08:23.271Z,88.10
2023-03-10T19:10:56.333Z,88.05
2023-03-10T19:13:25.287Z,87.75
2023-03-10T19:15:53.423Z,88.16
2023-03-10T19:18:23.610Z,88.39
2023-03-10T19:20:51.882Z,89.11
2023-03-10T19:23:19.975Z,89.39
2023-03-10T19:25:47.994Z,89.24
2023-03-10T19:28:15.956Z,89.66
2023-03-10T19:30:43.950Z,89.38
2023-03-10T19:33:11.955Z,89.62
2023-03-10T19:35:41.318Z,89.58
2023-03-10T19:38:09.585Z,89.46
2023-03-10T19:40:38.556Z,89.32
2023-03-10T19:43:06.461Z,89.08
2023-03-10T19:45:34.416Z,89.01
2023-03-10T19:48:02.333Z,88.34
2023-03-10T19:50:30.300Z,88.45
2023-03-10T19:52:59.585Z,88.70
2023-03-10T19:55:27.664Z,89.31
2023-03-10T19:57:57.270Z,88.57
2023-03-10T20:00:31.069Z,88.79
2023-03-10T20:02:59.694Z,89.04
2023-03-10T20:05:27.972Z,88.16
2023-03-10T20:07:55.883Z,87.68
2023-03-10T20:10:25.444Z,88.09
2023-03-10T20:12:53.564Z,88.75
2023-03-10T20:15:21.495Z,88.67
2023-03-10T20:17:49.636Z,89.19
2023-03-10T20:20:20.084Z,88.66
2023-03-10T20:22:50.448Z,89.53
2023-03-10T20:25:20.670Z,89.81
2023-03-10T20:27:52.200Z,89.25
2023-03-10T20:30:22.553Z,89.43
2023-03-10T20:32:50.633Z,88.65
2023-03-10T20:35:19.136Z,88.19
2023-03-10T20:37:47.076Z,88.16
2023-03-10T20:40:19.511Z,87.89
2023-03-10T20:42:47.426Z,88.64
2023-03-10T20:45:16.948Z,88.67
2023-03-10T20:47:44.871Z,88.88
2023-03-10T20:50:13.687Z,89.44
2023-03-10T20:52:43.172Z,88.93
2023-03-10T20:55:19.666Z,89.19
2023-03-10T20:57:47.972Z,89.88
2023-03-10T21:00:19.575Z,89.13
2023-03-10T21:02:49.164Z,89.11
2023-03-10T21:05:17.325Z,88.32
2023-03-10T21:07:45.247Z,88.88
2023-03-10T21:10:15.476Z,88.96
2023-03-10T21:12:44.145Z,88.16
2023-03-10T21:15:14.339Z,88.57
2023-03-10T21:17:44.210Z,88.72
2023-03-10T21:20:15.844Z,89.67
2023-03-10T21:22:44.118Z,90.28
2023-03-10T21:25:15.211Z,90.25
2023-03-10T21:27:44.270Z,90.60
2023-03-10T21:30:14.624Z,91.08
2023-03-10T21:32:44.358Z,90.97
2023-03-10T21:35:13.691Z,91.53
2023-03-10T21:37:44.269Z,92.14
2023-03-10T21:40:15.017Z,92.14
2023-03-10T21:42:43.439Z,92.74
2023-03-10T21:45:14.393Z,91.39
2023-03-10T21:47:43.859Z,90.91
2023-03-10T21:50:13.544Z,91.48
2023-03-10T21:52:41.821Z,92.09
2023-03-10T21:55:16.333Z,91.48
2023-03-10T21:57:44.230Z,90.76
2023-03-10T22:00:13.660Z,89.70
2023-03-10T22:02:43.336Z,89.23
2023-03-10T22:05:14.072Z,89.67
2023-03-10T22:07:42.869Z,89.74
2023-03-10T22:10:12.789Z,89.97
2023-03-10T22:12:41.311Z,89.70
2023-03-10T22:15:15.152Z,89.65
2023-03-10T22:17:44.553Z,90.01
2023-03-10T22:20:16.269Z,90.05
2023-03-10T22:22:44.184Z,89.64
2023-03-10T22:25:12.566Z,89.99
2023-03-10T22:27:40.481Z,90.85
2023-03-10T22:30:09.429Z,90.62
2023-03-10T22:32:37.541Z,90.75
2023-03-10T22:35:07.469Z,90.97
2023-03-10T22:37:35.379Z,90.99
2023-03-10T22:40:05.155Z,90.33
2023-03-10T22:42:33.201Z,91.00
2023-03-10T22:45:01.941Z,90.78
2023-03-10T22:47:29.911Z,90.88
2023-03-10T22:49:57.814Z,90.11
2023-03-10T22:52:27.189Z,90.50
2023-03-10T22:54:55.087Z,91.17
2023-03-10T22:57:23.007Z,90.56
2023-03-10T22:59:50.986Z,90.50
2023-03-10T23:02:18.944Z,91.60
2023-03-10T23:04:47.023Z,90.17
2023-03-10T23:07:14.962Z,89.97
2023-03-10T23:09:44.287Z,89.42
2023-03-10T23:12:12.226Z,88.76
2023-03-10T23:14:40.126Z,87.88
2023-03-10T23:17:08.361Z,88.53
2023-03-10T23:19:36.623Z,88.33
2023-03-10T23:22:04.910Z,89.56
2023-03-10T23:24:32.900Z,89.93
2023-03-10T23:27:02.181Z,90.43
2023-03-10T23:29:30.102Z,90.52
2023-03-10T23:31:58.022Z,90.38
2023-03-10T23:34:25.978Z,91.35
2023-03-10T23:36:55.856Z,91.50
2023-03-10T23:39:23.822Z,90.96
2023-03-10T23:41:52.388Z,91.08
2023-03-10T23:44:22.657Z,91.32
2023-03-10T23:46:52.237Z,91.28
2023-03-10T23:49:22.190Z,90.12
2023-03-10T23:51:53.266Z,90.81
2023-03-10T23:54:22.514Z,89.84
2023-03-10T23:56:51.071Z,89.76
2023-03-10T23:59:19.028Z,89.50
